createdAt,value
2019-05-05T00:01:21.804Z,4.23
2019-05-05T00:04:08.452Z,3.87
2019-05-05T00:06:36.929Z,4.17
2019-05-05T00:09:05.508Z,5.43
2019-05-05T00:11:47.878Z,3.97
2019-05-05T00:14:29.212Z,4.40
2019-05-05T00:17:02.503Z,4.83
2019-05-05T00:19:33.390Z,5.27
2019-05-05T00:22:00.887Z,6.57
2019-05-05T00:24:29.233Z,4.23
2019-05-05T00:26:57.844Z,6.10
2019-05-05T00:29:26.188Z,3.33
2019-05-05T00:31:54.790Z,3.23
2019-05-05T00:34:24.463Z,7.63
2019-05-05T00:36:55.040Z,5.53
2019-05-05T00:39:25.341Z,5.87
2019-05-05T00:41:55.346Z,4.63
2019-05-05T00:44:24.736Z,4.93
2019-05-05T00:47:15.788Z,3.03
2019-05-05T00:49:49.053Z,3.43
2019-05-05T00:52:16.462Z,4.40
2019-05-05T00:54:45.049Z,2.90
2019-05-05T00:57:14.964Z,4.57
2019-05-05T00:59:45.201Z,4.33
2019-05-05T01:02:25.091Z,5.00
2019-05-05T01:05:04.397Z,5.73
2019-05-05T01:07:32.612Z,3.77
2019-05-05T01:10:00.952Z,6.00
2019-05-05T01:12:29.325Z,6.40
2019-05-05T01:14:57.676Z,4.60
2019-05-05T01:17:26.030Z,7.77
2019-05-05T01:20:03.433Z,4.63
2019-05-05T01:22:25.106Z,2.83
2019-05-05T01:24:55.346Z,5.30
2019-05-05T01:27:25.349Z,11.67
2019-05-05T01:29:54.663Z,3.20
2019-05-05T01:32:27.061Z,6.33
2019-05-05T01:34:55.479Z,4.90
2019-05-05T01:37:34.737Z,4.93
2019-05-05T01:40:24.812Z,5.10
2019-05-05T01:42:54.739Z,3.90
2019-05-05T01:45:24.246Z,7.77
2019-05-05T01:47:54.430Z,5.97
2019-05-05T01:50:24.675Z,5.70
2019-05-05T01:52:52.906Z,3.60
2019-05-05T01:55:21.260Z,7.50
2019-05-05T01:57:50.176Z,7.13
2019-05-05T02:00:18.774Z,5.83
2019-05-05T02:02:47.757Z,4.97
2019-05-05T02:05:16.118Z,6.83
2019-05-05T02:07:45.039Z,4.53
2019-05-05T02:10:15.228Z,5.07
2019-05-05T02:12:44.762Z,3.17
2019-05-05T02:15:14.957Z,3.07
2019-05-05T02:17:44.558Z,2.40
2019-05-05T02:20:34.145Z,3.50
2019-05-05T02:23:04.534Z,3.20
2019-05-05T02:25:34.574Z,4.17
2019-05-05T02:28:04.416Z,2.70
2019-05-05T02:30:40.856Z,2.97
2019-05-05T02:33:11.828Z,6.03
2019-05-05T02:35:40.187Z,3.23
2019-05-05T02:38:08.716Z,3.23
2019-05-05T02:40:37.343Z,4.60
2019-05-05T02:43:06.518Z,2.27
2019-05-05T02:45:45.116Z,4.87
2019-05-05T02:48:15.630Z,2.70
2019-05-05T02:51:00.161Z,5.23
2019-05-05T02:53:26.516Z,5.50
2019-05-05T02:55:58.491Z,4.53
2019-05-05T02:58:27.809Z,3.50
2019-05-05T03:01:14.047Z,5.90
2019-05-05T03:03:43.817Z,7.00
2019-05-05T03:06:14.369Z,3.07
2019-05-05T03:08:44.014Z,4.30
2019-05-05T03:11:14.484Z,10.97
2019-05-05T03:13:44.227Z,4.20
2019-05-05T03:16:19.763Z,3.60
2019-05-05T03:18:48.571Z,9.03
2019-05-05T03:21:17.399Z,2.97
2019-05-05T03:23:46.011Z,2.90
2019-05-05T03:26:15.263Z,5.63
2019-05-05T03:28:47.759Z,2.43
2019-05-05T03:31:16.548Z,5.63
2019-05-05T03:33:46.065Z,4.23
2019-05-05T03:36:14.706Z,6.30
2019-05-05T03:38:44.443Z,6.47
2019-05-05T03:41:20.720Z,7.80
2019-05-05T03:44:08.219Z,4.50
2019-05-05T03:46:36.970Z,3.70
2019-05-05T03:49:05.771Z,2.60
2019-05-05T03:51:34.633Z,4.40
2019-05-05T03:54:04.353Z,6.90
2019-05-05T03:56:34.705Z,6.97
2019-05-05T03:59:04.938Z,7.87
2019-05-05T04:01:36.500Z,3.43
2019-05-05T04:04:33.652Z,3.10
2019-05-05T04:07:02.148Z,7.27
2019-05-05T04:09:30.803Z,3.57
2019-05-05T04:11:59.246Z,6.93
2019-05-05T04:14:27.630Z,3.07
2019-05-05T04:17:11.514Z,4.47
2019-05-05T04:19:43.629Z,21.63
2019-05-05T04:22:13.552Z,12.47
2019-05-05T04:24:43.600Z,3.97
2019-05-05T04:27:14.410Z,6.20
2019-05-05T04:29:43.919Z,5.20
2019-05-05T04:32:14.064Z,5.50
2019-05-05T04:34:43.882Z,6.43
2019-05-05T04:37:14.681Z,6.70
2019-05-05T04:39:44.359Z,5.40
2019-05-05T04:42:13.996Z,5.73
2019-05-05T04:44:44.619Z,3.13
2019-05-05T04:47:19.047Z,3.40
2019-05-05T04:49:59.916Z,7.93
2019-05-05T04:52:28.696Z,3.00
2019-05-05T04:54:58.167Z,7.50
2019-05-05T04:57:26.531Z,3.57
2019-05-05T04:59:54.873Z,4.00
2019-05-05T05:02:34.241Z,3.27
2019-05-05T05:05:08.632Z,2.80
2019-05-05T05:07:37.072Z,4.30
2019-05-05T05:10:05.487Z,7.60
2019-05-05T05:12:34.266Z,10.40
2019-05-05T05:15:04.301Z,6.40
2019-05-05T05:17:41.189Z,8.53
2019-05-05T05:20:10.116Z,3.40
2019-05-05T05:22:38.467Z,4.70
2019-05-05T05:25:06.896Z,4.57
2019-05-05T05:27:35.242Z,4.17
2019-05-05T05:30:04.692Z,3.33
2019-05-05T05:32:33.974Z,2.50
2019-05-05T05:35:03.664Z,1.90
2019-05-05T05:37:34.155Z,3.83
2019-05-05T05:40:14.450Z,3.70
2019-05-05T05:42:43.977Z,3.03
2019-05-05T05:45:37.111Z,3.30
2019-05-05T05:48:40.177Z,1.77
2019-05-05T05:51:11.084Z,2.17
2019-05-05T05:53:39.709Z,3.90
2019-05-05T05:56:08.394Z,3.83
2019-05-05T05:58:36.746Z,3.63
2019-05-05T06:01:05.091Z,5.50
2019-05-05T06:03:34.039Z,5.77
2019-05-05T06:06:04.774Z,3.00
2019-05-05T06:08:34.711Z,2.13
2019-05-05T06:11:04.426Z,5.03
2019-05-05T06:13:33.639Z,10.53
2019-05-05T06:16:04.011Z,7.53
2019-05-05T06:18:34.345Z,2.27
2019-05-05T06:21:04.393Z,3.37
2019-05-05T06:23:34.405Z,2.57
2019-05-05T06:26:06.892Z,4.83
2019-05-05T06:28:34.240Z,2.10
2019-05-05T06:31:04.709Z,3.00
2019-05-05T06:33:34.763Z,2.00
2019-05-05T06:36:03.878Z,2.30
2019-05-05T06:38:34.372Z,2.63
2019-05-05T06:41:28.103Z,2.77
2019-05-05T06:44:18.037Z,2.43
2019-05-05T06:47:01.454Z,2.50
2019-05-05T06:49:31.285Z,3.17
2019-05-05T06:51:59.916Z,2.90
2019-05-05T06:54:28.667Z,3.60
2019-05-05T06:56:57.088Z,2.83
2019-05-05T06:59:25.423Z,4.30
2019-05-05T07:01:53.783Z,2.00
2019-05-05T07:04:22.167Z,3.77
2019-05-05T07:06:56.218Z,2.50
2019-05-05T07:09:21.028Z,2.70
2019-05-05T07:11:49.364Z,1.70
2019-05-05T07:14:17.764Z,4.60
2019-05-05T07:16:46.097Z,3.20
2019-05-05T07:19:14.752Z,1.60
2019-05-05T07:21:43.676Z,8.23
2019-05-05T07:24:14.388Z,1.67
2019-05-05T07:26:44.539Z,2.53
2019-05-05T07:29:14.681Z,3.03
2019-05-05T07:31:43.758Z,2.50
2019-05-05T07:34:13.747Z,2.70
2019-05-05T07:36:44.907Z,4.00
2019-05-05T07:39:14.335Z,2.70
2019-05-05T07:41:44.811Z,3.23
2019-05-05T07:44:25.942Z,2.80
2019-05-05T07:46:44.072Z,2.47
2019-05-05T07:49:13.847Z,4.37
2019-05-05T07:51:44.253Z,2.53
2019-05-05T07:54:14.524Z,3.67
2019-05-05T07:56:44.402Z,2.03
2019-05-05T07:59:14.678Z,3.23
2019-05-05T08:01:45.813Z,5.33
2019-05-05T08:04:13.684Z,2.07
2019-05-05T08:06:44.532Z,2.37
2019-05-05T08:09:14.646Z,2.60
2019-05-05T08:11:43.590Z,1.70
2019-05-05T08:14:14.380Z,1.33
2019-05-05T08:17:07.266Z,2.23
2019-05-05T08:19:54.802Z,3.53
2019-05-05T08:22:23.611Z,4.30
2019-05-05T08:24:59.653Z,3.00
2019-05-05T08:27:46.042Z,2.43
2019-05-05T08:30:44.160Z,2.40
2019-05-05T08:33:14.095Z,2.90
2019-05-05T08:35:44.718Z,2.40
2019-05-05T08:38:13.808Z,2.73
2019-05-05T08:40:43.857Z,4.23
2019-05-05T08:43:13.854Z,6.47
2019-05-05T08:45:44.430Z,2.07
2019-05-05T08:48:14.260Z,2.63
2019-05-05T08:50:43.855Z,3.10
2019-05-05T08:53:13.830Z,2.43
2019-05-05T08:55:44.333Z,3.30
2019-05-05T08:58:14.626Z,3.10
2019-05-05T09:00:44.430Z,5.63
2019-05-05T09:03:13.984Z,2.17
2019-05-05T09:05:43.709Z,1.70
2019-05-05T09:08:13.817Z,2.13
2019-05-05T09:10:44.646Z,2.10
2019-05-05T09:13:14.275Z,1.83
2019-05-05T09:15:44.345Z,3.47
2019-05-05T09:18:14.134Z,9.93
2019-05-05T09:20:44.594Z,4.30
2019-05-05T09:23:14.778Z,3.47
2019-05-05T09:26:05.309Z,5.30
2019-05-05T09:28:41.768Z,7.97
2019-05-05T09:31:10.105Z,5.23
2019-05-05T09:33:38.500Z,2.73
2019-05-05T09:36:06.942Z,3.77
2019-05-05T09:38:35.568Z,3.60
2019-05-05T09:41:04.005Z,3.80
2019-05-05T09:43:34.454Z,2.73
2019-05-05T09:46:03.895Z,3.60
2019-05-05T09:48:33.558Z,2.77
2019-05-05T09:51:04.364Z,2.00
2019-05-05T09:53:34.401Z,1.67
2019-05-05T09:56:04.062Z,2.47
2019-05-05T09:58:34.601Z,1.93
2019-05-05T10:01:03.969Z,3.00
2019-05-05T10:03:34.083Z,5.90
2019-05-05T10:06:04.693Z,3.07
2019-05-05T10:08:34.076Z,3.33
2019-05-05T10:11:04.127Z,2.77
2019-05-05T10:13:33.610Z,1.70
2019-05-05T10:16:03.949Z,4.23
2019-05-05T10:18:35.482Z,2.53
2019-05-05T10:21:04.478Z,2.70
2019-05-05T10:23:34.271Z,3.50
2019-05-05T10:26:05.460Z,2.63
2019-05-05T10:28:34.105Z,2.70
2019-05-05T10:31:04.611Z,2.13
2019-05-05T10:33:36.048Z,8.90
2019-05-05T10:36:03.158Z,1.60
2019-05-05T10:38:34.001Z,1.97
2019-05-05T10:41:04.137Z,2.70
2019-05-05T10:43:34.226Z,1.77
2019-05-05T10:46:03.890Z,2.03
2019-05-05T10:48:34.060Z,3.40
2019-05-05T10:51:04.173Z,2.40
2019-05-05T10:53:32.742Z,1.97
2019-05-05T10:56:01.098Z,4.00
2019-05-05T10:58:29.490Z,1.90
2019-05-05T11:01:00.508Z,1.90
2019-05-05T11:03:29.225Z,2.67
2019-05-05T11:05:57.668Z,3.10
2019-05-05T11:08:26.972Z,6.50
2019-05-05T11:10:55.396Z,3.53
2019-05-05T11:13:24.033Z,4.00
2019-05-05T11:15:54.513Z,4.37
2019-05-05T11:18:23.776Z,4.80
2019-05-05T11:20:52.458Z,2.57
2019-05-05T11:23:20.989Z,8.33
2019-05-05T11:25:49.432Z,5.67
2019-05-05T11:28:18.828Z,3.20
2019-05-05T11:30:47.654Z,2.27
2019-05-05T11:33:31.332Z,3.17
2019-05-05T11:36:07.968Z,2.67
2019-05-05T11:38:36.599Z,3.93
2019-05-05T11:41:05.264Z,2.30
2019-05-05T11:43:33.896Z,2.37
2019-05-05T11:46:02.753Z,3.13
2019-05-05T11:48:31.111Z,4.27
2019-05-05T11:50:59.525Z,2.17
2019-05-05T11:53:27.875Z,4.00
2019-05-05T11:55:56.204Z,2.20
2019-05-05T11:58:24.961Z,2.10
2019-05-05T12:00:54.471Z,4.23
2019-05-05T12:03:23.207Z,2.23
2019-05-05T12:05:51.836Z,2.60
2019-05-05T12:08:20.296Z,6.00
2019-05-05T12:10:54.195Z,2.30
2019-05-05T12:13:22.818Z,3.40
2019-05-05T12:15:57.973Z,3.37
2019-05-05T12:18:26.326Z,3.63
2019-05-05T12:20:54.746Z,4.00
2019-05-05T12:23:23.225Z,2.67
2019-05-05T12:26:09.641Z,5.73
2019-05-05T12:28:56.919Z,3.40
2019-05-05T12:31:27.087Z,3.97
2019-05-05T12:33:55.495Z,4.33
2019-05-05T12:36:23.886Z,6.13
2019-05-05T12:38:54.420Z,2.97
2019-05-05T12:41:23.845Z,2.70
2019-05-05T12:43:54.951Z,3.10
2019-05-05T12:46:54.242Z,3.20
2019-05-05T12:49:25.348Z,2.50
2019-05-05T12:51:54.059Z,3.27
2019-05-05T12:54:24.490Z,3.57
2019-05-05T12:56:53.877Z,2.00
2019-05-05T12:59:25.078Z,4.40
2019-05-05T13:01:54.656Z,2.70
2019-05-05T13:04:24.603Z,4.43
2019-05-05T13:06:54.168Z,3.63
2019-05-05T13:09:24.347Z,2.43
2019-05-05T13:11:54.150Z,2.93
2019-05-05T13:14:22.785Z,2.90
2019-05-05T13:16:53.902Z,2.10
2019-05-05T13:19:27.922Z,2.63
2019-05-05T13:22:15.948Z,2.53
2019-05-05T13:25:04.650Z,3.23
2019-05-05T13:27:36.885Z,3.93
2019-05-05T13:30:06.393Z,2.10
2019-05-05T13:32:34.728Z,2.87
2019-05-05T13:35:04.067Z,3.00
2019-05-05T13:37:33.760Z,2.77
2019-05-05T13:40:04.379Z,2.20
2019-05-05T13:42:32.617Z,2.33
2019-05-05T13:45:10.732Z,3.20
2019-05-05T13:47:39.543Z,3.47
2019-05-05T13:50:14.813Z,2.07
2019-05-05T13:52:44.180Z,4.23
2019-05-05T13:55:13.953Z,6.00
2019-05-05T13:57:44.330Z,5.27
2019-05-05T14:00:15.776Z,3.10
2019-05-05T14:02:44.092Z,2.47
2019-05-05T14:05:13.480Z,3.33
2019-05-05T14:07:43.631Z,8.17
2019-05-05T14:10:14.391Z,3.00
2019-05-05T14:12:43.790Z,3.27
2019-05-05T14:15:15.490Z,4.77
2019-05-05T14:17:43.986Z,4.30
2019-05-05T14:20:14.661Z,3.20
2019-05-05T14:22:43.820Z,2.10
2019-05-05T14:25:19.156Z,1.60
2019-05-05T14:27:47.938Z,1.93
2019-05-05T14:30:44.367Z,7.77
2019-05-05T14:33:18.968Z,2.00
2019-05-05T14:36:09.445Z,2.60
2019-05-05T14:38:40.077Z,3.50
2019-05-05T14:41:08.845Z,2.83
2019-05-05T14:43:37.531Z,1.60
2019-05-05T14:46:06.455Z,4.43
2019-05-05T14:48:37.129Z,3.03
2019-05-05T14:51:05.399Z,3.40
2019-05-05T14:53:34.806Z,2.30
2019-05-05T14:56:04.663Z,1.60
2019-05-05T14:58:33.184Z,5.37
2019-05-05T15:01:01.525Z,3.13
2019-05-05T15:03:29.850Z,2.83
2019-05-05T15:06:08.332Z,2.77
2019-05-05T15:08:55.974Z,2.03
2019-05-05T15:11:39.280Z,5.60
2019-05-05T15:14:07.680Z,2.90
2019-05-05T15:16:35.998Z,2.37
2019-05-05T15:19:04.420Z,2.40
2019-05-05T15:21:33.996Z,4.20
2019-05-05T15:24:02.524Z,3.40
2019-05-05T15:26:31.237Z,2.50
2019-05-05T15:29:01.771Z,4.80
2019-05-05T15:31:29.648Z,5.30
2019-05-05T15:33:57.972Z,1.60
2019-05-05T15:36:26.339Z,2.23
2019-05-05T15:38:55.254Z,2.30
2019-05-05T15:41:23.784Z,2.07
2019-05-05T15:43:54.330Z,3.03
2019-05-05T15:46:24.413Z,2.70
2019-05-05T15:48:54.538Z,3.37
2019-05-05T15:51:23.710Z,2.00
2019-05-05T15:53:54.218Z,6.50
2019-05-05T15:56:24.487Z,2.00
2019-05-05T15:58:52.913Z,4.90
2019-05-05T16:01:21.251Z,3.10
2019-05-05T16:03:49.910Z,2.70
2019-05-05T16:06:18.584Z,2.17
2019-05-05T16:08:47.382Z,3.10
2019-05-05T16:11:15.808Z,3.10
2019-05-05T16:13:44.155Z,3.20
2019-05-05T16:16:37.610Z,3.30
2019-05-05T16:19:24.741Z,2.80
2019-05-05T16:22:00.556Z,5.23
2019-05-05T16:24:33.623Z,3.30
2019-05-05T16:27:01.877Z,3.83
2019-05-05T16:29:30.219Z,5.40
2019-05-05T16:31:58.913Z,10.83
2019-05-05T16:34:27.816Z,5.90
2019-05-05T16:36:57.001Z,5.10
2019-05-05T16:39:25.775Z,6.30
2019-05-05T16:41:54.574Z,12.13
2019-05-05T16:44:23.417Z,10.07
2019-05-05T16:46:53.829Z,8.93
2019-05-05T16:49:21.940Z,12.00
2019-05-05T16:52:03.929Z,10.27
2019-05-05T16:54:37.517Z,15.00
2019-05-05T16:57:05.931Z,11.63
2019-05-05T16:59:34.318Z,11.03
2019-05-05T17:02:04.580Z,9.10
2019-05-05T17:04:32.711Z,7.43
2019-05-05T17:07:01.051Z,6.40
2019-05-05T17:09:29.765Z,9.53
2019-05-05T17:12:10.533Z,11.60
2019-05-05T17:14:54.032Z,10.00
2019-05-05T17:17:31.217Z,12.03
2019-05-05T17:20:04.447Z,7.93
2019-05-05T17:22:36.571Z,6.40
2019-05-05T17:25:07.808Z,15.20
2019-05-05T17:27:47.832Z,7.77
2019-05-05T17:30:06.292Z,9.20
2019-05-05T17:32:34.656Z,9.60
2019-05-05T17:35:03.796Z,7.23
2019-05-05T17:37:33.561Z,5.93
2019-05-05T17:40:09.143Z,7.00
2019-05-05T17:42:45.012Z,12.73
2019-05-05T17:45:19.886Z,9.10
2019-05-05T17:47:53.954Z,9.93
2019-05-05T17:50:41.634Z,11.90
2019-05-05T17:53:24.343Z,10.80
2019-05-05T17:55:54.101Z,8.27
2019-05-05T17:58:24.700Z,12.33
2019-05-05T18:00:56.179Z,16.27
2019-05-05T18:03:24.822Z,11.40
2019-05-05T18:06:18.648Z,8.95
2019-05-05T18:08:50.064Z,11.97
2019-05-05T18:11:35.037Z,12.53
2019-05-05T18:14:06.552Z,9.70
2019-05-05T18:16:34.901Z,13.33
2019-05-05T18:19:04.478Z,15.80
2019-05-05T18:21:34.650Z,8.43
2019-05-05T18:24:03.288Z,11.43
2019-05-05T18:26:31.711Z,9.50
2019-05-05T18:29:03.792Z,7.87
2019-05-05T18:31:33.675Z,16.20
2019-05-05T18:34:04.012Z,8.83
2019-05-05T18:36:32.291Z,11.93
2019-05-05T18:39:00.725Z,9.20
2019-05-05T18:41:52.941Z,9.47
2019-05-05T18:44:26.392Z,12.30
2019-05-05T18:47:14.817Z,10.63
2019-05-05T18:49:42.108Z,9.40
2019-05-05T18:52:10.545Z,10.27
2019-05-05T18:54:39.312Z,8.87
2019-05-05T18:57:08.768Z,16.03
2019-05-05T18:59:37.125Z,13.33
2019-05-05T19:02:31.042Z,11.50
2019-05-05T19:05:17.508Z,12.20
2019-05-05T19:07:56.257Z,10.80
2019-05-05T19:10:25.433Z,11.90
2019-05-05T19:12:54.175Z,10.33
2019-05-05T19:15:24.411Z,15.57
2019-05-05T19:17:53.571Z,13.80
2019-05-05T19:20:28.104Z,6.17
2019-05-05T19:23:02.942Z,11.13
2019-05-05T19:25:31.069Z,12.30
2019-05-05T19:27:59.792Z,8.40
2019-05-05T19:30:28.319Z,11.77
2019-05-05T19:32:56.757Z,14.27
2019-05-05T19:35:40.144Z,9.07
2019-05-05T19:37:55.189Z,11.47
2019-05-05T19:40:24.377Z,15.40
2019-05-05T19:42:53.830Z,10.47
2019-05-05T19:45:24.102Z,16.37
2019-05-05T19:47:52.773Z,8.30
2019-05-05T19:50:34.321Z,12.23
2019-05-05T19:53:04.405Z,11.77
2019-05-05T19:55:33.825Z,6.80
2019-05-05T19:58:03.684Z,13.80
2019-05-05T20:00:32.085Z,8.80
2019-05-05T20:03:04.953Z,8.83
2019-05-05T20:05:30.592Z,18.17
2019-05-05T20:07:58.936Z,11.43
2019-05-05T20:10:27.300Z,11.20
2019-05-05T20:12:55.657Z,11.93
2019-05-05T20:15:31.056Z,11.20
2019-05-05T20:17:59.407Z,7.13
2019-05-05T20:20:28.030Z,14.30
2019-05-05T20:22:56.725Z,12.77
2019-05-05T20:25:25.249Z,13.43
2019-05-05T20:28:00.936Z,10.73
2019-05-05T20:30:29.317Z,13.53
2019-05-05T20:33:05.747Z,10.77
2019-05-05T20:35:41.541Z,13.93
2019-05-05T20:38:14.299Z,13.20
2019-05-05T20:40:44.345Z,10.03
2019-05-05T20:43:14.347Z,16.23
2019-05-05T20:45:44.242Z,12.10
2019-05-05T20:48:13.175Z,13.70
2019-05-05T20:50:43.755Z,7.60
2019-05-05T20:53:13.650Z,11.17
2019-05-05T20:55:42.033Z,17.57
2019-05-05T20:58:10.395Z,10.67
2019-05-05T21:00:39.080Z,8.13
2019-05-05T21:03:07.519Z,12.23
2019-05-05T21:05:35.864Z,10.90
2019-05-05T21:08:04.902Z,6.70
2019-05-05T21:10:34.756Z,11.60
2019-05-05T21:13:03.818Z,7.23
2019-05-05T21:15:34.032Z,11.23
2019-05-05T21:18:04.652Z,10.07
2019-05-05T21:20:34.728Z,9.63
2019-05-05T21:23:08.782Z,7.47
2019-05-05T21:25:39.264Z,10.40
2019-05-05T21:28:07.591Z,9.07
2019-05-05T21:30:35.940Z,12.23
2019-05-05T21:33:04.669Z,16.60
2019-05-05T21:35:34.851Z,17.60
2019-05-05T21:38:04.751Z,13.73
2019-05-05T21:40:34.620Z,8.83
2019-05-05T21:43:04.897Z,12.90
2019-05-05T21:45:34.641Z,16.40
2019-05-05T21:48:04.316Z,11.80
2019-05-05T21:50:38.300Z,12.17
2019-05-05T21:53:14.007Z,9.03
2019-05-05T21:55:49.763Z,8.73
2019-05-05T21:58:24.705Z,12.63
2019-05-05T22:01:07.953Z,9.43
2019-05-05T22:03:37.374Z,12.00
2019-05-05T22:06:05.967Z,11.53
2019-05-05T22:08:34.732Z,8.53
2019-05-05T22:11:04.012Z,13.23
2019-05-05T22:13:36.168Z,9.80
2019-05-05T22:16:04.069Z,11.40
2019-05-05T22:18:33.125Z,9.87
2019-05-05T22:21:06.951Z,10.30
2019-05-05T22:23:36.776Z,12.97
2019-05-05T22:26:05.604Z,15.03
2019-05-05T22:28:34.249Z,12.83
2019-05-05T22:31:04.760Z,11.63
2019-05-05T22:33:34.036Z,10.50
2019-05-05T22:36:04.475Z,14.03
2019-05-05T22:38:33.920Z,9.80
2019-05-05T22:41:02.556Z,8.73
2019-05-05T22:43:30.964Z,11.67
2019-05-05T22:45:59.317Z,12.10
2019-05-05T22:48:27.733Z,13.17
2019-05-05T22:50:56.083Z,20.23
2019-05-05T22:53:24.500Z,17.00
2019-05-05T22:55:52.856Z,11.30
2019-05-05T22:58:21.209Z,13.63
2019-05-05T23:00:49.543Z,9.70
2019-05-05T23:03:25.430Z,13.00
2019-05-05T23:05:57.695Z,11.37
2019-05-05T23:08:26.039Z,14.83
2019-05-05T23:10:54.552Z,10.70
2019-05-05T23:13:22.951Z,12.67
2019-05-05T23:16:08.429Z,9.47
2019-05-05T23:18:37.050Z,14.50
2019-05-05T23:21:17.152Z,14.90
2019-05-05T23:24:10.872Z,13.47
2019-05-05T23:26:40.114Z,11.63
2019-05-05T23:29:08.753Z,13.80
2019-05-05T23:31:37.399Z,11.97
2019-05-05T23:34:05.729Z,11.63
2019-05-05T23:36:34.108Z,13.83
2019-05-05T23:39:04.356Z,15.07
2019-05-05T23:41:34.718Z,12.80
2019-05-05T23:44:03.683Z,11.83
2019-05-05T23:46:32.133Z,9.33
2019-05-05T23:49:00.469Z,12.13
2019-05-05T23:51:29.105Z,11.40
2019-05-05T23:53:57.814Z,11.83
2019-05-05T23:56:26.165Z,14.03
2019-05-05T23:58:55.062Z,14.60
